sensor_id;sensor_type;location;lat;lon;timestamp;temperature;humidity
51801;DHT22;37855;53.204;6.568;2022-07-23T00:00:48;16.00;90.70
51801;DHT22;37855;53.204;6.568;2022-07-23T00:03:14;16.00;90.80
51801;DHT22;37855;53.204;6.568;2022-07-23T00:05:40;16.00;90.90
51801;DHT22;37855;53.204;6.568;2022-07-23T00:08:06;16.00;91.00
51801;DHT22;37855;53.204;6.568;2022-07-23T00:10:33;16.00;91.00
51801;DHT22;37855;53.204;6.568;2022-07-23T00:12:59;15.90;91.10
51801;DHT22;37855;53.204;6.568;2022-07-23T00:15:25;15.90;91.30
51801;DHT22;37855;53.204;6.568;2022-07-23T00:17:51;15.80;91.30
51801;DHT22;37855;53.204;6.568;2022-07-23T00:20:17;15.80;91.40
51801;DHT22;37855;53.204;6.568;2022-07-23T00:22:50;15.80;91.50
51801;DHT22;37855;53.204;6.568;2022-07-23T00:25:16;15.70;91.40
51801;DHT22;37855;53.204;6.568;2022-07-23T00:27:42;15.70;91.50
51801;DHT22;37855;53.204;6.568;2022-07-23T00:30:08;15.70;91.40
51801;DHT22;37855;53.204;6.568;2022-07-23T00:32:46;15.70;91.50
51801;DHT22;37855;53.204;6.568;2022-07-23T00:35:13;15.70;91.50
51801;DHT22;37855;53.204;6.568;2022-07-23T00:37:39;15.70;91.50
51801;DHT22;37855;53.204;6.568;2022-07-23T00:40:05;15.60;91.50
51801;DHT22;37855;53.204;6.568;2022-07-23T00:42:35;15.60;91.50
51801;DHT22;37855;53.204;6.568;2022-07-23T00:45:00;15.60;91.60
51801;DHT22;37855;53.204;6.568;2022-07-23T00:47:27;15.50;91.60
51801;DHT22;37855;53.204;6.568;2022-07-23T00:49:53;15.50;92.10
51801;DHT22;37855;53.204;6.568;2022-07-23T00:52:18;15.50;91.80
51801;DHT22;37855;53.204;6.568;2022-07-23T00:54:44;15.50;91.80
51801;DHT22;37855;53.204;6.568;2022-07-23T00:57:10;15.40;91.80
51801;DHT22;37855;53.204;6.568;2022-07-23T00:59:38;15.40;91.90
51801;DHT22;37855;53.204;6.568;2022-07-23T01:02:04;15.40;91.90
51801;DHT22;37855;53.204;6.568;2022-07-23T01:04:29;15.40;92.10
51801;DHT22;37855;53.204;6.568;2022-07-23T01:06:55;15.40;92.20
51801;DHT22;37855;53.204;6.568;2022-07-23T01:09:21;15.40;92.30
51801;DHT22;37855;53.204;6.568;2022-07-23T01:11:47;15.40;92.40
51801;DHT22;37855;53.204;6.568;2022-07-23T01:14:15;15.40;92.50
51801;DHT22;37855;53.204;6.568;2022-07-23T01:16:42;15.40;92.60
51801;DHT22;37855;53.204;6.568;2022-07-23T01:19:08;15.40;92.70
51801;DHT22;37855;53.204;6.568;2022-07-23T01:21:36;15.40;92.80
51801;DHT22;37855;53.204;6.568;2022-07-23T01:24:02;15.40;92.90
51801;DHT22;37855;53.204;6.568;2022-07-23T01:26:28;15.40;92.90
51801;DHT22;37855;53.204;6.568;2022-07-23T01:28:53;15.50;93.00
51801;DHT22;37855;53.204;6.568;2022-07-23T01:31:19;15.40;92.90
51801;DHT22;37855;53.204;6.568;2022-07-23T01:33:45;15.40;93.00
51801;DHT22;37855;53.204;6.568;2022-07-23T01:36:11;15.50;93.00
51801;DHT22;37855;53.204;6.568;2022-07-23T01:38:39;15.50;93.10
51801;DHT22;37855;53.204;6.568;2022-07-23T01:41:04;15.50;93.10
51801;DHT22;37855;53.204;6.568;2022-07-23T01:43:30;15.60;93.20
51801;DHT22;37855;53.204;6.568;2022-07-23T01:45:56;15.50;93.30
51801;DHT22;37855;53.204;6.568;2022-07-23T01:48:21;15.50;93.40
51801;DHT22;37855;53.204;6.568;2022-07-23T01:50:47;15.50;93.40
51801;DHT22;37855;53.204;6.568;2022-07-23T01:53:14;15.50;93.40
51801;DHT22;37855;53.204;6.568;2022-07-23T01:55:40;15.40;93.40
51801;DHT22;37855;53.204;6.568;2022-07-23T01:58:06;15.50;93.50
51801;DHT22;37855;53.204;6.568;2022-07-23T02:00:32;15.50;93.40
51801;DHT22;37855;53.204;6.568;2022-07-23T02:02:58;15.50;93.50
51801;DHT22;37855;53.204;6.568;2022-07-23T02:05:25;15.50;93.60
51801;DHT22;37855;53.204;6.568;2022-07-23T02:07:52;15.50;93.70
51801;DHT22;37855;53.204;6.568;2022-07-23T02:10:17;15.50;93.90
51801;DHT22;37855;53.204;6.568;2022-07-23T02:12:43;15.50;94.00
51801;DHT22;37855;53.204;6.568;2022-07-23T02:15:09;15.50;94.00
51801;DHT22;37855;53.204;6.568;2022-07-23T02:17:34;15.50;94.10
51801;DHT22;37855;53.204;6.568;2022-07-23T02:20:00;15.50;94.00
51801;DHT22;37855;53.204;6.568;2022-07-23T02:22:26;15.50;94.10
51801;DHT22;37855;53.204;6.568;2022-07-23T02:24:54;15.40;94.10
51801;DHT22;37855;53.204;6.568;2022-07-23T02:27:20;15.40;94.10
51801;DHT22;37855;53.204;6.568;2022-07-23T02:29:46;15.40;94.10
51801;DHT22;37855;53.204;6.568;2022-07-23T02:32:12;15.40;94.30
51801;DHT22;37855;53.204;6.568;2022-07-23T02:34:38;15.30;94.30
51801;DHT22;37855;53.204;6.568;2022-07-23T02:37:05;15.30;94.50
51801;DHT22;37855;53.204;6.568;2022-07-23T02:39:31;15.30;94.40
51801;DHT22;37855;53.204;6.568;2022-07-23T02:41:56;15.30;94.40
51801;DHT22;37855;53.204;6.568;2022-07-23T02:44:23;15.20;94.40
51801;DHT22;37855;53.204;6.568;2022-07-23T02:46:48;15.20;94.40
51801;DHT22;37855;53.204;6.568;2022-07-23T02:49:14;15.30;94.40
51801;DHT22;37855;53.204;6.568;2022-07-23T02:51:40;15.20;94.70
51801;DHT22;37855;53.204;6.568;2022-07-23T02:54:05;15.20;94.70
51801;DHT22;37855;53.204;6.568;2022-07-23T02:56:31;15.20;94.70
51801;DHT22;37855;53.204;6.568;2022-07-23T02:58:58;15.20;94.80
51801;DHT22;37855;53.204;6.568;2022-07-23T03:01:23;15.20;94.80
51801;DHT22;37855;53.204;6.568;2022-07-23T03:03:49;15.20;94.90
51801;DHT22;37855;53.204;6.568;2022-07-23T03:06:15;15.20;95.00
51801;DHT22;37855;53.204;6.568;2022-07-23T03:08:41;15.20;95.00
51801;DHT22;37855;53.204;6.568;2022-07-23T03:11:09;15.20;95.00
51801;DHT22;37855;53.204;6.568;2022-07-23T03:13:38;15.20;95.40
51801;DHT22;37855;53.204;6.568;2022-07-23T03:16:04;15.20;95.00
51801;DHT22;37855;53.204;6.568;2022-07-23T03:18:32;15.20;95.00
51801;DHT22;37855;53.204;6.568;2022-07-23T03:20:57;15.20;95.00
51801;DHT22;37855;53.204;6.568;2022-07-23T03:23:23;15.20;95.00
51801;DHT22;37855;53.204;6.568;2022-07-23T03:25:49;15.30;94.90
51801;DHT22;37855;53.204;6.568;2022-07-23T03:28:15;15.20;94.90
51801;DHT22;37855;53.204;6.568;2022-07-23T03:30:42;15.20;94.90
51801;DHT22;37855;53.204;6.568;2022-07-23T03:33:08;15.20;94.90
51801;DHT22;37855;53.204;6.568;2022-07-23T03:35:34;15.20;95.00
51801;DHT22;37855;53.204;6.568;2022-07-23T03:38:00;15.20;95.10
51801;DHT22;37855;53.204;6.568;2022-07-23T03:40:28;15.10;95.00
51801;DHT22;37855;53.204;6.568;2022-07-23T03:42:53;15.10;95.00
51801;DHT22;37855;53.204;6.568;2022-07-23T03:45:19;15.10;95.00
51801;DHT22;37855;53.204;6.568;2022-07-23T03:47:45;15.10;95.00
51801;DHT22;37855;53.204;6.568;2022-07-23T03:50:11;15.10;95.00
51801;DHT22;37855;53.204;6.568;2022-07-23T03:52:36;15.10;94.90
51801;DHT22;37855;53.204;6.568;2022-07-23T03:55:03;15.20;94.90
51801;DHT22;37855;53.204;6.568;2022-07-23T03:57:31;15.10;94.70
51801;DHT22;37855;53.204;6.568;2022-07-23T03:59:57;15.20;94.70
51801;DHT22;37855;53.204;6.568;2022-07-23T04:02:23;15.20;94.70
51801;DHT22;37855;53.204;6.568;2022-07-23T04:04:48;15.20;94.70
51801;DHT22;37855;53.204;6.568;2022-07-23T04:07:14;15.20;94.70
51801;DHT22;37855;53.204;6.568;2022-07-23T04:09:41;15.20;94.70
51801;DHT22;37855;53.204;6.568;2022-07-23T04:12:07;15.20;94.70
51801;DHT22;37855;53.204;6.568;2022-07-23T04:14:33;15.20;94.70
51801;DHT22;37855;53.204;6.568;2022-07-23T04:16:59;15.20;94.80
51801;DHT22;37855;53.204;6.568;2022-07-23T04:19:25;15.10;95.10
51801;DHT22;37855;53.204;6.568;2022-07-23T04:21:51;15.10;94.80
51801;DHT22;37855;53.204;6.568;2022-07-23T04:24:17;15.20;94.80
51801;DHT22;37855;53.204;6.568;2022-07-23T04:26:43;15.20;94.70
51801;DHT22;37855;53.204;6.568;2022-07-23T04:29:09;15.20;94.60
51801;DHT22;37855;53.204;6.568;2022-07-23T04:31:35;15.20;94.70
51801;DHT22;37855;53.204;6.568;2022-07-23T04:34:01;15.30;94.60
51801;DHT22;37855;53.204;6.568;2022-07-23T04:36:27;15.20;94.40
51801;DHT22;37855;53.204;6.568;2022-07-23T04:38:54;15.30;94.50
51801;DHT22;37855;53.204;6.568;2022-07-23T04:41:20;15.30;94.40
51801;DHT22;37855;53.204;6.568;2022-07-23T04:43:46;15.20;94.30
51801;DHT22;37855;53.204;6.568;2022-07-23T04:46:15;15.30;94.20
51801;DHT22;37855;53.204;6.568;2022-07-23T04:48:42;15.30;94.20
51801;DHT22;37855;53.204;6.568;2022-07-23T04:51:07;15.40;94.10
51801;DHT22;37855;53.204;6.568;2022-07-23T04:53:33;15.40;94.20
51801;DHT22;37855;53.204;6.568;2022-07-23T04:56:00;15.30;94.10
51801;DHT22;37855;53.204;6.568;2022-07-23T04:58:26;15.40;94.20
51801;DHT22;37855;53.204;6.568;2022-07-23T05:00:51;15.30;94.10
51801;DHT22;37855;53.204;6.568;2022-07-23T05:03:17;15.30;94.10
51801;DHT22;37855;53.204;6.568;2022-07-23T05:05:44;15.40;94.00
51801;DHT22;37855;53.204;6.568;2022-07-23T05:08:10;15.40;94.00
51801;DHT22;37855;53.204;6.568;2022-07-23T05:10:36;15.40;94.00
51801;DHT22;37855;53.204;6.568;2022-07-23T05:13:01;15.40;94.30
51801;DHT22;37855;53.204;6.568;2022-07-23T05:15:27;15.50;93.90
51801;DHT22;37855;53.204;6.568;2022-07-23T05:17:53;15.60;93.80
51801;DHT22;37855;53.204;6.568;2022-07-23T05:20:18;15.60;93.70
51801;DHT22;37855;53.204;6.568;2022-07-23T05:22:44;15.70;93.60
51801;DHT22;37855;53.204;6.568;2022-07-23T05:25:10;15.70;93.40
51801;DHT22;37855;53.204;6.568;2022-07-23T05:27:35;15.70;93.30
51801;DHT22;37855;53.204;6.568;2022-07-23T05:30:01;15.70;93.20
51801;DHT22;37855;53.204;6.568;2022-07-23T05:32:27;15.80;93.10
51801;DHT22;37855;53.204;6.568;2022-07-23T05:34:54;15.80;93.00
51801;DHT22;37855;53.204;6.568;2022-07-23T05:37:19;15.80;92.70
51801;DHT22;37855;53.204;6.568;2022-07-23T05:39:45;15.80;92.70
51801;DHT22;37855;53.204;6.568;2022-07-23T05:42:10;15.80;92.70
51801;DHT22;37855;53.204;6.568;2022-07-23T05:44:36;15.80;92.70
51801;DHT22;37855;53.204;6.568;2022-07-23T05:47:02;15.80;92.70
51801;DHT22;37855;53.204;6.568;2022-07-23T05:49:28;15.80;92.70
51801;DHT22;37855;53.204;6.568;2022-07-23T05:51:54;15.80;92.60
51801;DHT22;37855;53.204;6.568;2022-07-23T05:54:20;15.90;92.60
51801;DHT22;37855;53.204;6.568;2022-07-23T05:56:45;16.00;92.50
51801;DHT22;37855;53.204;6.568;2022-07-23T05:59:11;16.00;92.30
51801;DHT22;37855;53.204;6.568;2022-07-23T06:01:38;16.00;92.10
51801;DHT22;37855;53.204;6.568;2022-07-23T06:04:04;16.10;92.00
51801;DHT22;37855;53.204;6.568;2022-07-23T06:06:29;16.10;91.90
51801;DHT22;37855;53.204;6.568;2022-07-23T06:08:55;16.10;91.70
51801;DHT22;37855;53.204;6.568;2022-07-23T06:11:20;16.10;91.60
51801;DHT22;37855;53.204;6.568;2022-07-23T06:13:46;16.10;91.60
51801;DHT22;37855;53.204;6.568;2022-07-23T06:16:12;16.10;91.50
51801;DHT22;37855;53.204;6.568;2022-07-23T06:18:37;16.10;91.50
51801;DHT22;37855;53.204;6.568;2022-07-23T06:21:03;16.20;91.50
51801;DHT22;37855;53.204;6.568;2022-07-23T06:23:29;16.20;91.50
51801;DHT22;37855;53.204;6.568;2022-07-23T06:25:54;16.20;91.40
51801;DHT22;37855;53.204;6.568;2022-07-23T06:28:20;16.20;91.40
51801;DHT22;37855;53.204;6.568;2022-07-23T06:30:45;16.20;91.40
51801;DHT22;37855;53.204;6.568;2022-07-23T06:33:13;16.20;91.40
51801;DHT22;37855;53.204;6.568;2022-07-23T06:35:39;16.20;91.30
51801;DHT22;37855;53.204;6.568;2022-07-23T06:38:05;16.20;91.40
51801;DHT22;37855;53.204;6.568;2022-07-23T06:40:30;16.20;91.40
51801;DHT22;37855;53.204;6.568;2022-07-23T06:42:56;16.20;91.50
51801;DHT22;37855;53.204;6.568;2022-07-23T06:45:22;16.30;91.50
51801;DHT22;37855;53.204;6.568;2022-07-23T06:47:47;16.30;91.30
51801;DHT22;37855;53.204;6.568;2022-07-23T06:50:13;16.30;91.30
51801;DHT22;37855;53.204;6.568;2022-07-23T06:52:39;16.30;91.40
51801;DHT22;37855;53.204;6.568;2022-07-23T06:55:05;16.40;91.50
51801;DHT22;37855;53.204;6.568;2022-07-23T06:57:31;16.40;91.40
51801;DHT22;37855;53.204;6.568;2022-07-23T06:59:56;16.50;91.20
51801;DHT22;37855;53.204;6.568;2022-07-23T07:02:22;16.60;91.10
51801;DHT22;37855;53.204;6.568;2022-07-23T07:04:48;16.60;90.90
51801;DHT22;37855;53.204;6.568;2022-07-23T07:07:14;16.70;90.90
51801;DHT22;37855;53.204;6.568;2022-07-23T07:09:39;16.70;90.80
51801;DHT22;37855;53.204;6.568;2022-07-23T07:12:05;16.80;90.70
51801;DHT22;37855;53.204;6.568;2022-07-23T07:14:31;16.90;90.40
51801;DHT22;37855;53.204;6.568;2022-07-23T07:16:56;17.00;90.20
51801;DHT22;37855;53.204;6.568;2022-07-23T07:19:22;17.00;89.30
51801;DHT22;37855;53.204;6.568;2022-07-23T07:21:48;17.10;88.60
51801;DHT22;37855;53.204;6.568;2022-07-23T07:24:13;17.20;87.20
51801;DHT22;37855;53.204;6.568;2022-07-23T07:26:39;17.30;86.70
51801;DHT22;37855;53.204;6.568;2022-07-23T07:29:05;17.30;84.50
51801;DHT22;37855;53.204;6.568;2022-07-23T07:31:31;17.40;83.10
51801;DHT22;37855;53.204;6.568;2022-07-23T07:33:57;17.50;82.70
51801;DHT22;37855;53.204;6.568;2022-07-23T07:36:23;17.50;80.70
51801;DHT22;37855;53.204;6.568;2022-07-23T07:38:48;17.50;78.90
51801;DHT22;37855;53.204;6.568;2022-07-23T07:41:16;17.50;78.40
51801;DHT22;37855;53.204;6.568;2022-07-23T07:43:41;17.50;77.30
51801;DHT22;37855;53.204;6.568;2022-07-23T07:46:07;17.40;77.40
51801;DHT22;37855;53.204;6.568;2022-07-23T07:48:39;17.50;78.10
51801;DHT22;37855;53.204;6.568;2022-07-23T07:51:05;17.60;78.80
51801;DHT22;37855;53.204;6.568;2022-07-23T07:53:31;17.70;76.40
51801;DHT22;37855;53.204;6.568;2022-07-23T07:55:56;17.90;73.70
51801;DHT22;37855;53.204;6.568;2022-07-23T07:58:22;17.90;71.90
51801;DHT22;37855;53.204;6.568;2022-07-23T08:00:48;18.00;71.50
51801;DHT22;37855;53.204;6.568;2022-07-23T08:03:13;18.00;72.10
51801;DHT22;37855;53.204;6.568;2022-07-23T08:05:39;18.00;71.50
51801;DHT22;37855;53.204;6.568;2022-07-23T08:08:08;17.90;71.90
51801;DHT22;37855;53.204;6.568;2022-07-23T08:10:35;18.00;72.20
51801;DHT22;37855;53.204;6.568;2022-07-23T08:13:00;18.10;71.30
51801;DHT22;37855;53.204;6.568;2022-07-23T08:15:29;18.10;71.50
51801;DHT22;37855;53.204;6.568;2022-07-23T08:17:55;18.10;71.60
51801;DHT22;37855;53.204;6.568;2022-07-23T08:20:23;18.20;71.80
51801;DHT22;37855;53.204;6.568;2022-07-23T08:23:02;18.30;71.40
51801;DHT22;37855;53.204;6.568;2022-07-23T08:25:31;18.30;69.70
51801;DHT22;37855;53.204;6.568;2022-07-23T08:27:58;18.30;68.90
51801;DHT22;37855;53.204;6.568;2022-07-23T08:30:25;18.30;70.10
51801;DHT22;37855;53.204;6.568;2022-07-23T08:32:54;18.30;70.00
51801;DHT22;37855;53.204;6.568;2022-07-23T08:35:25;18.30;70.20
51801;DHT22;37855;53.204;6.568;2022-07-23T08:37:51;18.50;70.60
51801;DHT22;37855;53.204;6.568;2022-07-23T08:40:17;18.50;69.50
51801;DHT22;37855;53.204;6.568;2022-07-23T08:42:43;18.50;69.50
51801;DHT22;37855;53.204;6.568;2022-07-23T08:45:09;18.50;69.40
51801;DHT22;37855;53.204;6.568;2022-07-23T08:47:37;18.50;69.70
51801;DHT22;37855;53.204;6.568;2022-07-23T08:50:04;18.50;70.00
51801;DHT22;37855;53.204;6.568;2022-07-23T08:52:31;18.40;70.70
51801;DHT22;37855;53.204;6.568;2022-07-23T08:54:57;18.30;70.70
51801;DHT22;37855;53.204;6.568;2022-07-23T08:57:23;18.30;71.10
51801;DHT22;37855;53.204;6.568;2022-07-23T08:59:48;18.30;70.80
51801;DHT22;37855;53.204;6.568;2022-07-23T09:02:14;18.30;71.20
51801;DHT22;37855;53.204;6.568;2022-07-23T09:04:41;18.20;71.60
51801;DHT22;37855;53.204;6.568;2022-07-23T09:07:07;18.30;71.80
51801;DHT22;37855;53.204;6.568;2022-07-23T09:09:33;18.40;72.20
51801;DHT22;37855;53.204;6.568;2022-07-23T09:12:07;18.50;70.80
51801;DHT22;37855;53.204;6.568;2022-07-23T09:14:54;18.50;70.80
51801;DHT22;37855;53.204;6.568;2022-07-23T09:17:20;18.60;70.70
51801;DHT22;37855;53.204;6.568;2022-07-23T09:19:46;18.60;71.10
51801;DHT22;37855;53.204;6.568;2022-07-23T09:22:25;18.50;70.30
51801;DHT22;37855;53.204;6.568;2022-07-23T09:25:23;18.50;70.80
51801;DHT22;37855;53.204;6.568;2022-07-23T09:28:00;18.60;70.70
51801;DHT22;37855;53.204;6.568;2022-07-23T09:30:30;18.60;71.50
51801;DHT22;37855;53.204;6.568;2022-07-23T09:33:12;18.80;72.00
51801;DHT22;37855;53.204;6.568;2022-07-23T09:38:19;18.90;70.80
51801;DHT22;37855;53.204;6.568;2022-07-23T09:41:08;18.90;70.90
51801;DHT22;37855;53.204;6.568;2022-07-23T09:43:35;18.90;70.80
51801;DHT22;37855;53.204;6.568;2022-07-23T09:46:26;18.90;69.30
51801;DHT22;37855;53.204;6.568;2022-07-23T09:48:54;19.00;69.20
51801;DHT22;37855;53.204;6.568;2022-07-23T09:51:22;19.00;69.40
51801;DHT22;37855;53.204;6.568;2022-07-23T09:53:51;19.10;70.00
51801;DHT22;37855;53.204;6.568;2022-07-23T09:56:18;19.20;69.10
51801;DHT22;37855;53.204;6.568;2022-07-23T09:58:46;19.10;68.00
51801;DHT22;37855;53.204;6.568;2022-07-23T10:01:15;19.20;68.20
51801;DHT22;37855;53.204;6.568;2022-07-23T10:03:42;19.20;68.20
51801;DHT22;37855;53.204;6.568;2022-07-23T10:06:09;19.20;67.90
51801;DHT22;37855;53.204;6.568;2022-07-23T10:08:36;19.20;67.90
51801;DHT22;37855;53.204;6.568;2022-07-23T10:11:03;19.20;68.20
51801;DHT22;37855;53.204;6.568;2022-07-23T10:13:30;19.30;68.30
51801;DHT22;37855;53.204;6.568;2022-07-23T10:16:14;19.30;69.30
51801;DHT22;37855;53.204;6.568;2022-07-23T10:18:39;19.30;69.30
51801;DHT22;37855;53.204;6.568;2022-07-23T10:21:07;19.10;69.40
51801;DHT22;37855;53.204;6.568;2022-07-23T10:23:40;19.10;69.60
51801;DHT22;37855;53.204;6.568;2022-07-23T10:26:38;19.00;70.10
51801;DHT22;37855;53.204;6.568;2022-07-23T10:29:47;18.90;70.70
51801;DHT22;37855;53.204;6.568;2022-07-23T10:32:43;18.90;71.10
51801;DHT22;37855;53.204;6.568;2022-07-23T10:35:20;18.90;71.60
51801;DHT22;37855;53.204;6.568;2022-07-23T10:37:56;19.00;71.60
51801;DHT22;37855;53.204;6.568;2022-07-23T10:40:24;19.10;71.10
51801;DHT22;37855;53.204;6.568;2022-07-23T10:42:52;19.20;71.00
51801;DHT22;37855;53.204;6.568;2022-07-23T10:48:11;19.30;70.70
51801;DHT22;37855;53.204;6.568;2022-07-23T10:50:37;19.40;70.60
51801;DHT22;37855;53.204;6.568;2022-07-23T10:58:00;19.50;70.00
51801;DHT22;37855;53.204;6.568;2022-07-23T11:00:28;19.40;70.20
51801;DHT22;37855;53.204;6.568;2022-07-23T11:02:59;19.40;70.20
51801;DHT22;37855;53.204;6.568;2022-07-23T11:05:45;19.40;70.40
51801;DHT22;37855;53.204;6.568;2022-07-23T11:08:12;19.40;71.10
51801;DHT22;37855;53.204;6.568;2022-07-23T11:10:44;19.40;71.10
51801;DHT22;37855;53.204;6.568;2022-07-23T11:16:16;19.60;70.80
51801;DHT22;37855;53.204;6.568;2022-07-23T11:24:07;19.40;72.20
51801;DHT22;37855;53.204;6.568;2022-07-23T11:26:46;19.40;72.80
51801;DHT22;37855;53.204;6.568;2022-07-23T11:29:42;19.30;71.90
51801;DHT22;37855;53.204;6.568;2022-07-23T11:34:45;19.30;71.70
51801;DHT22;37855;53.204;6.568;2022-07-23T11:37:46;19.40;71.90
51801;DHT22;37855;53.204;6.568;2022-07-23T11:40:17;19.30;72.10
51801;DHT22;37855;53.204;6.568;2022-07-23T11:42:58;19.40;72.50
51801;DHT22;37855;53.204;6.568;2022-07-23T11:45:38;19.50;72.10
51801;DHT22;37855;53.204;6.568;2022-07-23T11:48:06;19.50;72.10
51801;DHT22;37855;53.204;6.568;2022-07-23T11:50:32;19.60;72.30
51801;DHT22;37855;53.204;6.568;2022-07-23T11:52:58;19.70;72.20
51801;DHT22;37855;53.204;6.568;2022-07-23T11:55:24;19.70;72.00
51801;DHT22;37855;53.204;6.568;2022-07-23T11:57:53;19.80;71.50
51801;DHT22;37855;53.204;6.568;2022-07-23T12:00:24;19.90;71.10
51801;DHT22;37855;53.204;6.568;2022-07-23T12:02:55;19.90;70.80
51801;DHT22;37855;53.204;6.568;2022-07-23T12:05:33;19.90;70.60
51801;DHT22;37855;53.204;6.568;2022-07-23T12:08:00;20.00;70.70
51801;DHT22;37855;53.204;6.568;2022-07-23T12:10:43;20.00;72.90
51801;DHT22;37855;53.204;6.568;2022-07-23T12:13:14;20.10;74.10
51801;DHT22;37855;53.204;6.568;2022-07-23T12:15:50;20.20;72.70
51801;DHT22;37855;53.204;6.568;2022-07-23T12:18:20;20.30;69.80
51801;DHT22;37855;53.204;6.568;2022-07-23T12:20:48;20.50;74.40
51801;DHT22;37855;53.204;6.568;2022-07-23T12:23:17;20.60;74.40
51801;DHT22;37855;53.204;6.568;2022-07-23T12:25:44;20.70;71.20
51801;DHT22;37855;53.204;6.568;2022-07-23T12:30:51;21.00;68.80
51801;DHT22;37855;53.204;6.568;2022-07-23T12:33:33;21.00;67.30
51801;DHT22;37855;53.204;6.568;2022-07-23T12:36:00;21.00;66.60
51801;DHT22;37855;53.204;6.568;2022-07-23T12:38:28;20.90;66.90
51801;DHT22;37855;53.204;6.568;2022-07-23T12:40:55;20.90;67.00
51801;DHT22;37855;53.204;6.568;2022-07-23T12:43:38;20.80;67.20
51801;DHT22;37855;53.204;6.568;2022-07-23T12:48:36;20.60;67.20
51801;DHT22;37855;53.204;6.568;2022-07-23T12:51:09;20.60;66.10
51801;DHT22;37855;53.204;6.568;2022-07-23T12:53:52;20.70;66.30
51801;DHT22;37855;53.204;6.568;2022-07-23T12:56:28;20.80;65.30
51801;DHT22;37855;53.204;6.568;2022-07-23T12:58:56;20.80;64.20
51801;DHT22;37855;53.204;6.568;2022-07-23T13:01:34;20.80;64.30
51801;DHT22;37855;53.204;6.568;2022-07-23T13:04:13;20.90;64.90
51801;DHT22;37855;53.204;6.568;2022-07-23T13:06:42;20.90;64.90
51801;DHT22;37855;53.204;6.568;2022-07-23T13:09:10;20.90;64.40
51801;DHT22;37855;53.204;6.568;2022-07-23T13:11:38;21.00;64.90
51801;DHT22;37855;53.204;6.568;2022-07-23T13:14:04;21.00;64.70
51801;DHT22;37855;53.204;6.568;2022-07-23T13:16:31;20.90;64.10
51801;DHT22;37855;53.204;6.568;2022-07-23T13:18:57;20.80;64.50
51801;DHT22;37855;53.204;6.568;2022-07-23T13:21:24;20.90;65.00
51801;DHT22;37855;53.204;6.568;2022-07-23T13:23:50;21.00;64.70
51801;DHT22;37855;53.204;6.568;2022-07-23T13:26:16;21.00;64.40
51801;DHT22;37855;53.204;6.568;2022-07-23T13:28:42;20.90;64.80
51801;DHT22;37855;53.204;6.568;2022-07-23T13:31:08;21.00;65.00
51801;DHT22;37855;53.204;6.568;2022-07-23T13:33:34;21.20;64.60
51801;DHT22;37855;53.204;6.568;2022-07-23T13:36:00;21.20;63.20
51801;DHT22;37855;53.204;6.568;2022-07-23T13:38:26;21.20;63.60
51801;DHT22;37855;53.204;6.568;2022-07-23T13:40:53;21.40;64.00
51801;DHT22;37855;53.204;6.568;2022-07-23T13:43:21;21.60;62.80
51801;DHT22;37855;53.204;6.568;2022-07-23T13:45:47;21.70;62.10
51801;DHT22;37855;53.204;6.568;2022-07-23T13:48:13;21.70;61.80
51801;DHT22;37855;53.204;6.568;2022-07-23T13:50:41;21.70;61.70
51801;DHT22;37855;53.204;6.568;2022-07-23T13:53:10;21.70;61.40
51801;DHT22;37855;53.204;6.568;2022-07-23T13:55:37;21.80;62.30
51801;DHT22;37855;53.204;6.568;2022-07-23T13:58:03;21.80;62.50
51801;DHT22;37855;53.204;6.568;2022-07-23T14:00:29;22.00;62.10
51801;DHT22;37855;53.204;6.568;2022-07-23T14:02:57;21.90;62.20
51801;DHT22;37855;53.204;6.568;2022-07-23T14:05:23;21.80;61.90
51801;DHT22;37855;53.204;6.568;2022-07-23T14:07:50;21.80;61.80
51801;DHT22;37855;53.204;6.568;2022-07-23T14:10:18;21.70;62.40
51801;DHT22;37855;53.204;6.568;2022-07-23T14:12:46;21.70;62.60
51801;DHT22;37855;53.204;6.568;2022-07-23T14:15:12;21.70;62.60
51801;DHT22;37855;53.204;6.568;2022-07-23T14:17:40;21.60;62.00
51801;DHT22;37855;53.204;6.568;2022-07-23T14:20:07;21.60;62.30
51801;DHT22;37855;53.204;6.568;2022-07-23T14:22:33;21.60;62.10
51801;DHT22;37855;53.204;6.568;2022-07-23T14:24:59;21.70;61.60
51801;DHT22;37855;53.204;6.568;2022-07-23T14:27:27;21.60;61.70
51801;DHT22;37855;53.204;6.568;2022-07-23T14:29:53;21.60;61.80
51801;DHT22;37855;53.204;6.568;2022-07-23T14:32:19;21.70;61.70
51801;DHT22;37855;53.204;6.568;2022-07-23T14:34:45;21.80;61.10
51801;DHT22;37855;53.204;6.568;2022-07-23T14:37:11;21.70;61.50
51801;DHT22;37855;53.204;6.568;2022-07-23T14:39:38;21.80;61.30
51801;DHT22;37855;53.204;6.568;2022-07-23T14:42:04;21.80;61.00
51801;DHT22;37855;53.204;6.568;2022-07-23T14:44:30;21.90;61.00
51801;DHT22;37855;53.204;6.568;2022-07-23T14:46:55;21.80;61.60
51801;DHT22;37855;53.204;6.568;2022-07-23T14:49:21;21.90;61.80
51801;DHT22;37855;53.204;6.568;2022-07-23T14:51:47;21.90;61.20
51801;DHT22;37855;53.204;6.568;2022-07-23T14:54:13;21.80;61.50
51801;DHT22;37855;53.204;6.568;2022-07-23T14:56:40;21.70;61.90
51801;DHT22;37855;53.204;6.568;2022-07-23T14:59:06;21.80;62.20
51801;DHT22;37855;53.204;6.568;2022-07-23T15:01:32;21.90;62.10
51801;DHT22;37855;53.204;6.568;2022-07-23T15:03:57;21.80;61.20
51801;DHT22;37855;53.204;6.568;2022-07-23T15:06:23;21.80;61.30
51801;DHT22;37855;53.204;6.568;2022-07-23T15:08:49;21.70;61.40
51801;DHT22;37855;53.204;6.568;2022-07-23T15:11:15;21.70;61.60
51801;DHT22;37855;53.204;6.568;2022-07-23T15:13:41;21.70;61.70
51801;DHT22;37855;53.204;6.568;2022-07-23T15:16:07;21.70;61.70
51801;DHT22;37855;53.204;6.568;2022-07-23T15:18:33;21.80;61.70
51801;DHT22;37855;53.204;6.568;2022-07-23T15:20:59;21.70;61.10
51801;DHT22;37855;53.204;6.568;2022-07-23T15:23:26;21.70;61.50
51801;DHT22;37855;53.204;6.568;2022-07-23T15:25:55;21.70;61.70
51801;DHT22;37855;53.204;6.568;2022-07-23T15:28:21;21.60;62.20
51801;DHT22;37855;53.204;6.568;2022-07-23T15:30:48;21.60;62.10
51801;DHT22;37855;53.204;6.568;2022-07-23T15:33:14;21.70;62.30
51801;DHT22;37855;53.204;6.568;2022-07-23T15:35:40;21.80;62.20
51801;DHT22;37855;53.204;6.568;2022-07-23T15:38:06;22.00;61.80
51801;DHT22;37855;53.204;6.568;2022-07-23T15:40:31;22.10;62.50
51801;DHT22;37855;53.204;6.568;2022-07-23T15:42:57;22.10;61.10
51801;DHT22;37855;53.204;6.568;2022-07-23T15:45:23;22.30;61.10
51801;DHT22;37855;53.204;6.568;2022-07-23T15:47:48;22.30;60.80
51801;DHT22;37855;53.204;6.568;2022-07-23T15:50:15;22.40;60.40
51801;DHT22;37855;53.204;6.568;2022-07-23T15:52:41;22.30;60.20
51801;DHT22;37855;53.204;6.568;2022-07-23T15:55:07;22.60;60.70
51801;DHT22;37855;53.204;6.568;2022-07-23T15:57:33;22.80;59.90
51801;DHT22;37855;53.204;6.568;2022-07-23T15:59:59;23.00;58.80